createdAt,value
2017-05-16T04:26:15.304Z,20.65
2017-05-16T04:27:17.142Z,20.49
2017-05-16T04:28:15.985Z,20.43
2017-05-16T04:29:13.305Z,20.40
2017-05-16T04:30:13.820Z,20.39
2017-05-16T04:31:11.827Z,20.38
2017-05-16T04:32:13.724Z,20.37
2017-05-16T04:33:13.791Z,20.37
2017-05-16T04:34:13.845Z,20.38
2017-05-16T04:35:13.050Z,20.36
2017-05-16T04:36:13.637Z,20.37
2017-05-16T04:37:12.969Z,20.37
2017-05-16T04:38:13.339Z,20.37
2017-05-16T04:39:13.794Z,20.43
2017-05-16T04:40:13.055Z,20.36
2017-05-16T04:41:13.369Z,20.37
2017-05-16T04:42:13.499Z,20.36
2017-05-16T04:43:18.742Z,20.36
2017-05-16T04:44:13.151Z,20.36
2017-05-16T04:45:16.753Z,20.35
2017-05-16T04:46:14.973Z,20.35
2017-05-16T04:47:13.378Z,20.36
2017-05-16T04:48:12.777Z,20.36
2017-05-16T04:49:14.565Z,20.36
2017-05-16T04:50:13.059Z,20.35
2017-05-16T04:51:15.703Z,20.36
2017-05-16T04:52:14.174Z,20.36
2017-05-16T04:53:13.087Z,20.42
2017-05-16T04:54:14.543Z,20.35
2017-05-16T04:55:12.986Z,20.36
2017-05-16T04:56:13.128Z,20.35
2017-05-16T04:57:13.438Z,20.35
2017-05-16T04:58:13.101Z,20.35
2017-05-16T04:59:14.808Z,20.35
2017-05-16T05:00:12.663Z,20.34
2017-05-16T05:01:15.891Z,20.35
2017-05-16T05:02:13.750Z,20.38
2017-05-16T05:03:15.475Z,20.89
2017-05-16T05:04:12.998Z,20.41
2017-05-16T05:05:13.200Z,20.38
2017-05-16T05:06:13.560Z,20.37
2017-05-16T05:07:13.495Z,20.43
2017-05-16T05:08:13.118Z,20.35
2017-05-16T05:09:13.551Z,20.36
2017-05-16T05:10:13.595Z,20.35
2017-05-16T05:11:13.051Z,20.35
2017-05-16T05:12:14.894Z,20.35
2017-05-16T05:13:14.522Z,20.35
2017-05-16T05:14:12.738Z,20.35
2017-05-16T05:15:13.118Z,20.35
2017-05-16T05:16:14.563Z,20.36
2017-05-16T05:17:13.154Z,20.35
2017-05-16T05:18:13.338Z,20.36
2017-05-16T05:19:13.652Z,20.35
2017-05-16T05:20:13.277Z,20.41
2017-05-16T05:21:16.062Z,20.36
2017-05-16T05:22:14.334Z,20.40
2017-05-16T05:23:14.096Z,20.35
2017-05-16T05:24:14.888Z,20.37
2017-05-16T05:25:13.128Z,20.36
2017-05-16T05:26:16.675Z,20.36
2017-05-16T05:27:13.375Z,20.36
2017-05-16T05:28:12.505Z,20.38
2017-05-16T05:29:13.127Z,20.37
2017-05-16T05:30:14.163Z,20.36
2017-05-16T05:31:13.498Z,20.42
2017-05-16T05:32:12.934Z,20.37
2017-05-16T05:33:15.081Z,20.37
2017-05-16T05:34:13.045Z,20.37
2017-05-16T05:35:13.655Z,20.37
2017-05-16T05:36:12.965Z,20.36
2017-05-16T05:37:13.719Z,20.37
2017-05-16T05:38:13.614Z,20.37
2017-05-16T05:39:13.597Z,20.39
2017-05-16T05:40:13.664Z,20.40
2017-05-16T05:41:13.090Z,20.41
2017-05-16T05:42:13.908Z,20.41
2017-05-16T05:43:13.528Z,20.42
2017-05-16T05:44:14.005Z,20.42
2017-05-16T05:45:14.628Z,20.46
2017-05-16T05:46:11.491Z,20.41
2017-05-16T05:47:13.886Z,20.42
2017-05-16T05:48:13.074Z,20.42
2017-05-16T05:49:13.468Z,20.44
2017-05-16T05:50:13.302Z,20.48
2017-05-16T05:51:12.759Z,20.43
2017-05-16T05:52:13.600Z,20.49
2017-05-16T05:53:13.572Z,20.43
2017-05-16T05:54:14.197Z,20.51
2017-05-16T05:55:12.688Z,20.44
2017-05-16T05:56:13.658Z,20.51
2017-05-16T05:57:15.949Z,20.43
2017-05-16T05:58:13.174Z,20.43
2017-05-16T05:59:13.604Z,20.44
2017-05-16T06:00:13.495Z,20.43
2017-05-16T06:01:12.739Z,20.44
2017-05-16T06:02:13.018Z,20.44
2017-05-16T06:03:13.272Z,20.44
2017-05-16T06:04:13.512Z,20.44
2017-05-16T06:05:10.885Z,20.43
2017-05-16T06:06:13.653Z,20.44
2017-05-16T06:07:13.182Z,20.44
2017-05-16T06:08:15.022Z,20.44
2017-05-16T06:09:13.835Z,20.45
2017-05-16T06:10:13.132Z,20.44
2017-05-16T06:11:13.538Z,20.44
2017-05-16T06:12:12.718Z,20.44
2017-05-16T06:13:10.042Z,20.43
2017-05-16T06:14:10.594Z,20.98
2017-05-16T06:15:13.615Z,21.03
2017-05-16T06:16:13.692Z,21.06
2017-05-16T06:17:13.693Z,21.08
2017-05-16T06:18:13.492Z,21.07
2017-05-16T06:19:10.365Z,21.08
2017-05-16T06:20:13.667Z,21.10
2017-05-16T06:21:10.738Z,21.09
2017-05-16T06:22:12.787Z,20.57
2017-05-16T06:23:13.888Z,20.56
2017-05-16T06:24:15.066Z,20.50
2017-05-16T06:25:14.908Z,20.47
2017-05-16T06:26:14.681Z,20.47
2017-05-16T06:27:14.095Z,20.46
2017-05-16T06:28:10.827Z,20.45
2017-05-16T06:29:13.558Z,20.99
2017-05-16T06:30:16.863Z,21.05
2017-05-16T06:31:13.627Z,21.07
2017-05-16T06:32:12.029Z,21.08
2017-05-16T06:33:12.887Z,20.56
2017-05-16T06:34:13.046Z,20.52
2017-05-16T06:35:14.693Z,20.51
2017-05-16T06:36:13.110Z,20.50
2017-05-16T06:37:13.708Z,20.50
2017-05-16T06:38:13.213Z,20.50
2017-05-16T06:39:13.773Z,20.50
2017-05-16T06:40:12.982Z,20.50
2017-05-16T06:41:11.504Z,20.50
2017-05-16T06:42:13.541Z,20.57
2017-05-16T06:43:12.784Z,20.52
2017-05-16T06:44:13.309Z,20.52
2017-05-16T06:45:14.672Z,20.55
2017-05-16T06:46:13.607Z,20.54
2017-05-16T06:47:13.800Z,20.53
2017-05-16T06:48:12.974Z,20.53
2017-05-16T06:49:13.303Z,20.53
2017-05-16T06:50:14.627Z,20.53
2017-05-16T06:51:13.079Z,20.53
2017-05-16T06:52:10.870Z,20.52
2017-05-16T06:53:13.035Z,20.52
2017-05-16T06:54:15.044Z,20.52
2017-05-16T06:55:14.607Z,20.50
2017-05-16T06:56:13.155Z,20.54
2017-05-16T06:57:14.294Z,20.70
2017-05-16T06:58:12.921Z,20.95
2017-05-16T06:59:13.238Z,21.22
2017-05-16T07:00:13.582Z,21.52
2017-05-16T07:01:12.922Z,21.81
2017-05-16T07:02:13.611Z,22.07
2017-05-16T07:03:12.897Z,21.92
2017-05-16T07:04:13.143Z,21.75
2017-05-16T07:05:13.608Z,21.63
2017-05-16T07:06:13.092Z,21.50
2017-05-16T07:07:13.564Z,21.42
2017-05-16T07:08:10.878Z,21.32
2017-05-16T07:09:13.155Z,21.26
2017-05-16T07:10:11.327Z,21.20
2017-05-16T07:11:13.524Z,21.16
2017-05-16T07:12:13.362Z,21.19
2017-05-16T07:13:17.938Z,21.09
2017-05-16T07:14:13.223Z,21.07
2017-05-16T07:15:13.926Z,21.04
2017-05-16T07:16:13.825Z,21.01
2017-05-16T07:17:13.627Z,21.00
2017-05-16T07:18:12.966Z,20.97
2017-05-16T07:19:13.705Z,20.98
2017-05-16T07:20:13.185Z,20.94
2017-05-16T07:21:13.665Z,20.93
2017-05-16T07:22:14.123Z,20.91
2017-05-16T07:23:13.645Z,20.90
2017-05-16T07:24:14.762Z,20.90
2017-05-16T07:25:13.768Z,20.88
2017-05-16T07:26:10.809Z,20.87
2017-05-16T07:27:13.747Z,20.87
2017-05-16T07:28:13.779Z,20.86
2017-05-16T07:29:16.681Z,20.85
2017-05-16T07:30:14.000Z,20.85
2017-05-16T07:31:12.888Z,20.85
2017-05-16T07:32:12.946Z,20.85
2017-05-16T07:33:13.275Z,20.85
2017-05-16T07:34:14.046Z,20.84
2017-05-16T07:35:13.223Z,20.84
2017-05-16T07:36:14.669Z,20.87
2017-05-16T07:37:13.768Z,21.36
2017-05-16T07:38:14.037Z,21.42
2017-05-16T07:39:14.005Z,21.42
2017-05-16T07:40:13.999Z,21.10
2017-05-16T07:41:12.845Z,20.90
2017-05-16T07:42:13.417Z,20.86
2017-05-16T07:43:12.881Z,20.85
2017-05-16T07:44:13.891Z,20.87
2017-05-16T07:45:13.413Z,20.83
2017-05-16T07:46:13.142Z,20.83
2017-05-16T07:47:17.087Z,20.83
2017-05-16T07:48:13.717Z,21.38
2017-05-16T07:49:10.363Z,21.41
2017-05-16T07:50:13.675Z,21.45
2017-05-16T07:51:11.343Z,21.46
2017-05-16T07:52:14.399Z,21.47
2017-05-16T07:53:13.759Z,21.47
2017-05-16T07:54:11.538Z,20.95
2017-05-16T07:55:13.440Z,20.91
2017-05-16T07:56:13.013Z,20.88
2017-05-16T07:57:13.121Z,20.87
2017-05-16T07:58:11.580Z,20.85
2017-05-16T07:59:15.093Z,20.84
2017-05-16T08:00:10.161Z,20.84
2017-05-16T08:01:13.415Z,20.84
2017-05-16T08:02:13.654Z,20.84
2017-05-16T08:03:09.783Z,20.83
2017-05-16T08:04:14.115Z,20.85
2017-05-16T08:05:12.914Z,20.84
2017-05-16T08:06:13.063Z,20.83
2017-05-16T08:07:13.135Z,20.84
2017-05-16T08:08:13.347Z,20.84
2017-05-16T08:09:12.824Z,20.83
2017-05-16T08:10:13.368Z,20.83
2017-05-16T08:11:13.719Z,20.83
2017-05-16T08:12:13.259Z,20.83
2017-05-16T08:13:14.148Z,20.83
2017-05-16T08:14:14.427Z,20.83
2017-05-16T08:15:12.686Z,20.83
2017-05-16T08:16:13.124Z,20.84
2017-05-16T08:17:14.926Z,20.83
2017-05-16T08:18:15.527Z,20.83
2017-05-16T08:19:13.390Z,20.85
2017-05-16T08:20:13.736Z,20.83
2017-05-16T08:21:15.727Z,20.83
2017-05-16T08:22:13.401Z,20.83
2017-05-16T08:23:14.831Z,20.83
2017-05-16T08:24:13.397Z,20.82
2017-05-16T08:25:13.285Z,20.83
2017-05-16T08:26:13.722Z,20.83
2017-05-16T08:27:14.018Z,20.83
2017-05-16T08:28:13.306Z,20.83
2017-05-16T08:29:15.335Z,20.83
2017-05-16T08:30:13.636Z,20.83
2017-05-16T08:31:13.112Z,20.83
2017-05-16T08:32:13.492Z,20.83
2017-05-16T08:33:10.558Z,20.83
2017-05-16T08:34:14.616Z,20.83
2017-05-16T08:35:13.911Z,20.83
2017-05-16T08:36:13.174Z,20.83
2017-05-16T08:37:13.539Z,20.84
2017-05-16T08:38:13.094Z,20.83
2017-05-16T08:39:13.742Z,20.83
2017-05-16T08:40:13.682Z,20.83
2017-05-16T08:41:13.138Z,20.84
2017-05-16T08:42:14.771Z,20.88
2017-05-16T08:43:16.226Z,20.84
2017-05-16T08:44:14.180Z,20.84
2017-05-16T08:45:12.834Z,20.84
2017-05-16T08:46:13.475Z,20.83
2017-05-16T08:47:13.237Z,21.37
2017-05-16T08:48:13.737Z,21.43
2017-05-16T08:49:13.294Z,21.45
2017-05-16T08:50:11.451Z,20.93
2017-05-16T08:51:13.555Z,20.89
2017-05-16T08:52:12.777Z,20.87
2017-05-16T08:53:14.014Z,20.86
2017-05-16T08:54:12.970Z,20.86
2017-05-16T08:55:13.374Z,20.85
2017-05-16T08:56:13.120Z,20.89
2017-05-16T08:57:13.709Z,20.85
2017-05-16T08:58:09.639Z,20.84
2017-05-16T08:59:14.068Z,20.85
2017-05-16T09:00:13.051Z,20.85
2017-05-16T09:01:13.435Z,20.85
2017-05-16T09:02:13.425Z,20.87
2017-05-16T09:03:13.426Z,20.92
2017-05-16T09:04:12.658Z,20.85
2017-05-16T09:05:12.965Z,20.86
2017-05-16T09:06:11.191Z,20.85
2017-05-16T09:07:13.544Z,20.91
2017-05-16T09:08:13.239Z,20.86
2017-05-16T09:09:13.775Z,20.85
2017-05-16T09:10:13.101Z,20.85
2017-05-16T09:11:13.873Z,20.92
2017-05-16T09:12:13.487Z,20.88
2017-05-16T09:13:13.125Z,21.40
2017-05-16T09:14:13.374Z,21.45
2017-05-16T09:15:13.766Z,21.12
2017-05-16T09:16:13.241Z,20.95
2017-05-16T09:17:13.897Z,20.91
2017-05-16T09:18:13.154Z,20.97
2017-05-16T09:19:14.684Z,20.89
2017-05-16T09:20:14.011Z,20.89
2017-05-16T09:21:14.902Z,20.88
2017-05-16T09:22:12.486Z,20.88
2017-05-16T09:23:14.285Z,20.87
2017-05-16T09:24:13.678Z,20.88
2017-05-16T09:25:13.032Z,20.88
2017-05-16T09:26:13.212Z,20.87
2017-05-16T09:27:13.664Z,20.86
2017-05-16T09:28:13.644Z,20.89
2017-05-16T09:29:13.723Z,20.87
2017-05-16T09:30:13.156Z,20.88
2017-05-16T09:31:13.434Z,20.88
2017-05-16T09:32:12.765Z,20.88
2017-05-16T09:33:13.111Z,20.88
2017-05-16T09:34:13.483Z,20.88
2017-05-16T09:35:10.267Z,20.88
2017-05-16T09:36:13.177Z,20.89
2017-05-16T09:37:17.722Z,20.89
2017-05-16T09:38:14.046Z,20.90
2017-05-16T09:39:13.591Z,20.89
2017-05-16T09:40:13.171Z,20.90
2017-05-16T09:41:14.763Z,20.90
2017-05-16T09:42:14.105Z,20.90
2017-05-16T09:43:13.034Z,20.90
2017-05-16T09:44:15.448Z,20.93
2017-05-16T09:45:13.056Z,20.90
2017-05-16T09:46:14.268Z,20.91
2017-05-16T09:47:13.795Z,20.91
2017-05-16T09:48:13.006Z,20.91
2017-05-16T09:49:13.238Z,20.91
2017-05-16T09:50:13.514Z,20.91
2017-05-16T09:51:13.186Z,20.92
2017-05-16T09:52:13.696Z,20.91
2017-05-16T09:53:13.507Z,20.90
2017-05-16T09:54:11.105Z,20.89
2017-05-16T09:55:13.079Z,20.91
2017-05-16T09:56:13.539Z,20.91
2017-05-16T09:57:13.751Z,20.91
2017-05-16T09:58:17.060Z,20.90
2017-05-16T09:59:14.633Z,20.90
2017-05-16T10:00:13.957Z,20.89
2017-05-16T10:01:13.662Z,20.89
2017-05-16T10:02:13.874Z,20.90
2017-05-16T10:03:13.665Z,20.90
2017-05-16T10:04:14.953Z,20.93
2017-05-16T10:05:16.491Z,20.91
2017-05-16T10:06:15.149Z,20.91
2017-05-16T10:07:13.637Z,20.92
2017-05-16T10:08:15.221Z,20.92
2017-05-16T10:09:10.277Z,20.93
2017-05-16T10:10:14.510Z,20.93
2017-05-16T10:11:14.560Z,20.95
2017-05-16T10:12:11.645Z,20.93
2017-05-16T10:13:14.171Z,21.48
2017-05-16T10:14:13.991Z,20.99
2017-05-16T10:15:09.843Z,20.96
2017-05-16T10:16:13.994Z,20.95
2017-05-16T10:17:14.177Z,20.95
2017-05-16T10:18:14.591Z,20.94
2017-05-16T10:19:16.616Z,20.94
2017-05-16T10:20:13.791Z,20.95
2017-05-16T10:21:16.469Z,20.95
2017-05-16T10:22:13.701Z,20.95
2017-05-16T10:23:14.035Z,20.94
2017-05-16T10:24:14.253Z,20.95
2017-05-16T10:25:14.316Z,20.95
2017-05-16T10:26:18.952Z,20.95
2017-05-16T10:27:13.975Z,20.95
2017-05-16T10:28:14.141Z,20.96
2017-05-16T10:29:14.916Z,21.02
2017-05-16T10:30:15.836Z,20.96
2017-05-16T10:31:23.752Z,20.95
2017-05-16T10:32:10.899Z,20.96
2017-05-16T10:33:14.010Z,20.97
2017-05-16T10:34:10.843Z,20.96
2017-05-16T10:36:14.117Z,20.98
2017-05-16T10:36:17.063Z,20.96
2017-05-16T10:37:14.906Z,20.97
2017-05-16T10:38:11.305Z,20.98
2017-05-16T10:39:14.547Z,21.51
2017-05-16T10:40:13.466Z,21.04
2017-05-16T10:41:13.722Z,21.01
2017-05-16T10:42:13.928Z,21.00
2017-05-16T10:43:14.589Z,21.00
2017-05-16T10:44:14.284Z,20.99
2017-05-16T10:45:13.965Z,20.98
2017-05-16T10:46:14.267Z,20.96
2017-05-16T10:47:15.001Z,20.95
2017-05-16T10:48:14.571Z,20.94
2017-05-16T10:49:14.117Z,20.93
2017-05-16T10:50:14.862Z,20.93
2017-05-16T10:51:14.216Z,20.99
2017-05-16T10:52:14.090Z,21.02
2017-05-16T10:53:13.892Z,20.94
2017-05-16T10:54:14.223Z,20.95
2017-05-16T10:55:13.683Z,20.94
2017-05-16T10:56:15.248Z,20.94
2017-05-16T10:57:15.297Z,20.93
2017-05-16T10:58:13.309Z,20.93
2017-05-16T10:59:11.762Z,20.92
2017-05-16T11:00:13.869Z,21.46
2017-05-16T11:01:15.312Z,21.51
2017-05-16T11:02:14.955Z,21.18
2017-05-16T11:03:15.526Z,21.07
2017-05-16T11:04:14.072Z,21.05
2017-05-16T11:05:15.854Z,20.98
2017-05-16T11:06:13.669Z,21.05
2017-05-16T11:07:14.078Z,20.98
2017-05-16T11:08:14.151Z,20.96
2017-05-16T11:09:12.470Z,20.94
2017-05-16T11:10:14.062Z,21.46
2017-05-16T11:11:14.233Z,21.51
2017-05-16T11:12:13.836Z,21.00
2017-05-16T11:13:15.411Z,20.95
2017-05-16T11:14:14.165Z,21.01
2017-05-16T11:15:15.211Z,20.92
2017-05-16T11:16:15.937Z,20.91
2017-05-16T11:17:15.604Z,20.91
2017-05-16T11:18:16.202Z,20.93
2017-05-16T11:19:14.598Z,20.93
2017-05-16T11:20:14.700Z,20.92
2017-05-16T11:21:13.940Z,20.91
2017-05-16T11:22:14.246Z,20.91
2017-05-16T11:23:14.263Z,20.91
2017-05-16T11:24:15.548Z,20.92
2017-05-16T11:25:14.735Z,20.91
